sensor_id;sensor_type;location;lat;lon;timestamp;P1;durP1;ratioP1;P2;durP2;ratioP2
9789;SDS011;4934;50.852;8.098;2023-12-07T00:01:18;47.60;;;18.40;;
9789;SDS011;4934;50.852;8.098;2023-12-07T00:03:44;48.80;;;19.17;;
9789;SDS011;4934;50.852;8.098;2023-12-07T00:06:09;51.47;;;17.83;;
9789;SDS011;4934;50.852;8.098;2023-12-07T00:08:35;51.83;;;20.15;;
9789;SDS011;4934;50.852;8.098;2023-12-07T00:11:01;46.58;;;19.42;;
9789;SDS011;4934;50.852;8.098;2023-12-07T00:13:26;52.20;;;19.70;;
9789;SDS011;4934;50.852;8.098;2023-12-07T00:15:52;46.75;;;17.77;;
9789;SDS011;4934;50.852;8.098;2023-12-07T00:18:17;47.35;;;17.33;;
9789;SDS011;4934;50.852;8.098;2023-12-07T00:20:44;46.25;;;18.13;;
9789;SDS011;4934;50.852;8.098;2023-12-07T00:23:10;43.75;;;17.00;;
9789;SDS011;4934;50.852;8.098;2023-12-07T00:25:35;46.67;;;18.58;;
9789;SDS011;4934;50.852;8.098;2023-12-07T00:28:01;40.75;;;17.08;;
9789;SDS011;4934;50.852;8.098;2023-12-07T00:30:28;44.60;;;17.15;;
9789;SDS011;4934;50.852;8.098;2023-12-07T00:32:53;39.67;;;16.80;;
9789;SDS011;4934;50.852;8.098;2023-12-07T00:35:19;39.42;;;16.15;;
9789;SDS011;4934;50.852;8.098;2023-12-07T00:37:47;41.47;;;16.90;;
9789;SDS011;4934;50.852;8.098;2023-12-07T00:40:13;40.40;;;17.85;;
9789;SDS011;4934;50.852;8.098;2023-12-07T00:42:39;48.05;;;18.15;;
9789;SDS011;4934;50.852;8.098;2023-12-07T00:45:05;45.00;;;17.23;;
9789;SDS011;4934;50.852;8.098;2023-12-07T00:47:31;41.03;;;17.73;;
9789;SDS011;4934;50.852;8.098;2023-12-07T00:49:56;39.38;;;15.70;;
9789;SDS011;4934;50.852;8.098;2023-12-07T00:52:22;41.17;;;15.65;;
9789;SDS011;4934;50.852;8.098;2023-12-07T00:54:47;39.35;;;15.82;;
9789;SDS011;4934;50.852;8.098;2023-12-07T00:57:13;42.63;;;17.05;;
9789;SDS011;4934;50.852;8.098;2023-12-07T00:59:39;37.40;;;15.90;;
9789;SDS011;4934;50.852;8.098;2023-12-07T01:02:04;37.50;;;15.43;;
9789;SDS011;4934;50.852;8.098;2023-12-07T01:04:33;40.00;;;14.70;;
9789;SDS011;4934;50.852;8.098;2023-12-07T01:06:59;42.38;;;16.45;;
9789;SDS011;4934;50.852;8.098;2023-12-07T01:09:25;43.38;;;17.38;;
9789;SDS011;4934;50.852;8.098;2023-12-07T01:11:51;40.88;;;16.15;;
9789;SDS011;4934;50.852;8.098;2023-12-07T01:14:17;41.65;;;17.27;;
9789;SDS011;4934;50.852;8.098;2023-12-07T01:16:43;49.03;;;17.42;;
9789;SDS011;4934;50.852;8.098;2023-12-07T01:19:09;37.67;;;16.85;;
9789;SDS011;4934;50.852;8.098;2023-12-07T01:21:35;38.45;;;16.65;;
9789;SDS011;4934;50.852;8.098;2023-12-07T01:24:01;37.08;;;16.10;;
9789;SDS011;4934;50.852;8.098;2023-12-07T01:26:27;35.55;;;15.63;;
9789;SDS011;4934;50.852;8.098;2023-12-07T01:28:53;41.28;;;15.30;;
9789;SDS011;4934;50.852;8.098;2023-12-07T01:31:18;41.90;;;16.80;;
9789;SDS011;4934;50.852;8.098;2023-12-07T01:33:44;30.88;;;14.77;;
9789;SDS011;4934;50.852;8.098;2023-12-07T01:36:10;37.75;;;15.50;;
9789;SDS011;4934;50.852;8.098;2023-12-07T01:38:36;50.43;;;18.57;;
9789;SDS011;4934;50.852;8.098;2023-12-07T01:41:01;39.40;;;17.60;;
9789;SDS011;4934;50.852;8.098;2023-12-07T01:43:27;46.88;;;19.48;;
9789;SDS011;4934;50.852;8.098;2023-12-07T01:45:53;43.75;;;17.80;;
9789;SDS011;4934;50.852;8.098;2023-12-07T01:48:21;42.13;;;17.15;;
9789;SDS011;4934;50.852;8.098;2023-12-07T01:50:49;28.70;;;11.77;;
9789;SDS011;4934;50.852;8.098;2023-12-07T01:53:16;39.03;;;14.70;;
9789;SDS011;4934;50.852;8.098;2023-12-07T01:55:42;44.38;;;16.88;;
9789;SDS011;4934;50.852;8.098;2023-12-07T01:58:08;34.97;;;15.03;;
9789;SDS011;4934;50.852;8.098;2023-12-07T02:00:35;39.50;;;16.05;;
9789;SDS011;4934;50.852;8.098;2023-12-07T02:03:03;35.40;;;15.65;;
9789;SDS011;4934;50.852;8.098;2023-12-07T02:05:29;35.85;;;14.82;;
9789;SDS011;4934;50.852;8.098;2023-12-07T02:07:57;42.60;;;17.13;;
9789;SDS011;4934;50.852;8.098;2023-12-07T02:10:23;46.65;;;18.45;;
9789;SDS011;4934;50.852;8.098;2023-12-07T02:12:49;46.67;;;18.02;;
9789;SDS011;4934;50.852;8.098;2023-12-07T02:15:18;47.10;;;19.17;;
9789;SDS011;4934;50.852;8.098;2023-12-07T02:20:24;38.10;;;16.02;;
9789;SDS011;4934;50.852;8.098;2023-12-07T02:22:57;37.85;;;16.02;;
9789;SDS011;4934;50.852;8.098;2023-12-07T02:25:29;40.80;;;15.10;;
9789;SDS011;4934;50.852;8.098;2023-12-07T02:28:05;39.58;;;15.15;;
9789;SDS011;4934;50.852;8.098;2023-12-07T02:30:30;46.70;;;17.40;;
9789;SDS011;4934;50.852;8.098;2023-12-07T02:32:56;48.27;;;17.60;;
9789;SDS011;4934;50.852;8.098;2023-12-07T02:35:21;46.40;;;18.10;;
9789;SDS011;4934;50.852;8.098;2023-12-07T02:37:50;45.35;;;18.52;;
9789;SDS011;4934;50.852;8.098;2023-12-07T02:40:24;47.00;;;17.40;;
9789;SDS011;4934;50.852;8.098;2023-12-07T02:42:52;45.07;;;17.67;;
9789;SDS011;4934;50.852;8.098;2023-12-07T02:45:18;43.13;;;16.97;;
9789;SDS011;4934;50.852;8.098;2023-12-07T02:47:44;35.90;;;14.93;;
9789;SDS011;4934;50.852;8.098;2023-12-07T02:50:11;36.50;;;14.60;;
9789;SDS011;4934;50.852;8.098;2023-12-07T02:52:37;35.17;;;15.05;;
9789;SDS011;4934;50.852;8.098;2023-12-07T02:55:03;34.17;;;13.23;;
9789;SDS011;4934;50.852;8.098;2023-12-07T02:57:29;30.10;;;12.97;;
9789;SDS011;4934;50.852;8.098;2023-12-07T02:59:55;34.37;;;14.13;;
9789;SDS011;4934;50.852;8.098;2023-12-07T03:02:21;41.17;;;16.33;;
9789;SDS011;4934;50.852;8.098;2023-12-07T03:04:47;39.90;;;15.70;;
9789;SDS011;4934;50.852;8.098;2023-12-07T03:07:12;46.17;;;17.63;;
9789;SDS011;4934;50.852;8.098;2023-12-07T03:09:38;41.40;;;15.07;;
9789;SDS011;4934;50.852;8.098;2023-12-07T03:12:04;39.33;;;14.70;;
9789;SDS011;4934;50.852;8.098;2023-12-07T03:14:30;34.33;;;14.68;;
9789;SDS011;4934;50.852;8.098;2023-12-07T03:16:58;37.63;;;15.23;;
9789;SDS011;4934;50.852;8.098;2023-12-07T03:19:25;41.13;;;16.67;;
9789;SDS011;4934;50.852;8.098;2023-12-07T03:21:50;51.90;;;17.90;;
9789;SDS011;4934;50.852;8.098;2023-12-07T03:24:16;44.50;;;17.80;;
9789;SDS011;4934;50.852;8.098;2023-12-07T03:26:41;49.80;;;17.80;;
9789;SDS011;4934;50.852;8.098;2023-12-07T03:29:07;48.70;;;19.33;;
9789;SDS011;4934;50.852;8.098;2023-12-07T03:31:33;47.60;;;17.80;;
9789;SDS011;4934;50.852;8.098;2023-12-07T03:33:58;44.87;;;18.87;;
9789;SDS011;4934;50.852;8.098;2023-12-07T03:36:26;48.70;;;18.10;;
9789;SDS011;4934;50.852;8.098;2023-12-07T03:38:52;44.53;;;18.20;;
9789;SDS011;4934;50.852;8.098;2023-12-07T03:41:17;47.03;;;17.53;;
9789;SDS011;4934;50.852;8.098;2023-12-07T03:43:43;52.40;;;18.73;;
9789;SDS011;4934;50.852;8.098;2023-12-07T03:46:09;49.83;;;18.07;;
9789;SDS011;4934;50.852;8.098;2023-12-07T03:48:35;51.23;;;19.90;;
9789;SDS011;4934;50.852;8.098;2023-12-07T03:51:00;47.60;;;17.47;;
9789;SDS011;4934;50.852;8.098;2023-12-07T03:53:26;42.53;;;17.73;;
9789;SDS011;4934;50.852;8.098;2023-12-07T03:55:52;41.80;;;17.03;;
9789;SDS011;4934;50.852;8.098;2023-12-07T03:58:18;37.60;;;15.17;;
9789;SDS011;4934;50.852;8.098;2023-12-07T04:00:44;52.23;;;18.90;;
9789;SDS011;4934;50.852;8.098;2023-12-07T04:03:10;49.57;;;17.90;;
9789;SDS011;4934;50.852;8.098;2023-12-07T04:05:36;47.50;;;18.30;;
9789;SDS011;4934;50.852;8.098;2023-12-07T04:08:02;44.17;;;16.73;;
9789;SDS011;4934;50.852;8.098;2023-12-07T04:10:30;37.70;;;14.93;;
9789;SDS011;4934;50.852;8.098;2023-12-07T04:12:55;34.83;;;14.27;;
9789;SDS011;4934;50.852;8.098;2023-12-07T04:15:21;30.13;;;12.40;;
9789;SDS011;4934;50.852;8.098;2023-12-07T04:17:47;40.75;;;14.35;;
9789;SDS011;4934;50.852;8.098;2023-12-07T04:20:12;29.93;;;12.40;;
9789;SDS011;4934;50.852;8.098;2023-12-07T04:22:38;35.43;;;11.77;;
9789;SDS011;4934;50.852;8.098;2023-12-07T04:25:05;34.37;;;12.43;;
9789;SDS011;4934;50.852;8.098;2023-12-07T04:27:32;40.13;;;15.23;;
9789;SDS011;4934;50.852;8.098;2023-12-07T04:29:58;36.90;;;15.37;;
9789;SDS011;4934;50.852;8.098;2023-12-07T04:32:24;35.63;;;14.63;;
9789;SDS011;4934;50.852;8.098;2023-12-07T04:34:50;34.13;;;13.87;;
9789;SDS011;4934;50.852;8.098;2023-12-07T04:37:16;42.07;;;15.50;;
9789;SDS011;4934;50.852;8.098;2023-12-07T04:39:42;35.23;;;14.43;;
9789;SDS011;4934;50.852;8.098;2023-12-07T04:42:07;41.87;;;15.70;;
9789;SDS011;4934;50.852;8.098;2023-12-07T04:44:33;33.07;;;13.37;;
9789;SDS011;4934;50.852;8.098;2023-12-07T04:46:58;33.10;;;13.77;;
9789;SDS011;4934;50.852;8.098;2023-12-07T04:49:24;37.40;;;14.05;;
9789;SDS011;4934;50.852;8.098;2023-12-07T04:51:50;81.77;;;28.43;;
9789;SDS011;4934;50.852;8.098;2023-12-07T04:54:15;51.07;;;21.00;;
9789;SDS011;4934;50.852;8.098;2023-12-07T04:56:42;60.40;;;21.03;;
9789;SDS011;4934;50.852;8.098;2023-12-07T04:59:08;48.80;;;18.67;;
9789;SDS011;4934;50.852;8.098;2023-12-07T05:01:37;52.80;;;18.73;;
9789;SDS011;4934;50.852;8.098;2023-12-07T05:04:04;57.27;;;19.67;;
9789;SDS011;4934;50.852;8.098;2023-12-07T05:06:30;48.43;;;16.93;;
9789;SDS011;4934;50.852;8.098;2023-12-07T05:08:56;37.50;;;15.07;;
9789;SDS011;4934;50.852;8.098;2023-12-07T05:11:22;38.60;;;13.97;;
9789;SDS011;4934;50.852;8.098;2023-12-07T05:13:48;39.78;;;15.32;;
9789;SDS011;4934;50.852;8.098;2023-12-07T05:16:13;42.83;;;15.37;;
9789;SDS011;4934;50.852;8.098;2023-12-07T05:18:39;33.20;;;13.00;;
9789;SDS011;4934;50.852;8.098;2023-12-07T05:21:05;61.20;;;25.73;;
9789;SDS011;4934;50.852;8.098;2023-12-07T05:23:31;45.27;;;15.57;;
9789;SDS011;4934;50.852;8.098;2023-12-07T05:25:57;38.53;;;13.67;;
9789;SDS011;4934;50.852;8.098;2023-12-07T05:28:22;26.20;;;11.93;;
9789;SDS011;4934;50.852;8.098;2023-12-07T05:30:48;33.03;;;12.47;;
9789;SDS011;4934;50.852;8.098;2023-12-07T05:33:14;29.10;;;11.90;;
9789;SDS011;4934;50.852;8.098;2023-12-07T05:35:41;21.20;;;9.83;;
9789;SDS011;4934;50.852;8.098;2023-12-07T05:38:06;29.03;;;10.80;;
9789;SDS011;4934;50.852;8.098;2023-12-07T05:40:32;26.37;;;10.70;;
9789;SDS011;4934;50.852;8.098;2023-12-07T05:42:58;25.17;;;10.77;;
9789;SDS011;4934;50.852;8.098;2023-12-07T05:45:24;32.40;;;11.37;;
9789;SDS011;4934;50.852;8.098;2023-12-07T05:47:51;30.37;;;13.17;;
9789;SDS011;4934;50.852;8.098;2023-12-07T05:50:17;36.73;;;13.00;;
9789;SDS011;4934;50.852;8.098;2023-12-07T05:52:42;39.27;;;14.53;;
9789;SDS011;4934;50.852;8.098;2023-12-07T05:55:09;35.23;;;14.33;;
9789;SDS011;4934;50.852;8.098;2023-12-07T05:57:34;43.50;;;16.63;;
9789;SDS011;4934;50.852;8.098;2023-12-07T06:00:00;38.10;;;15.33;;
9789;SDS011;4934;50.852;8.098;2023-12-07T06:02:26;34.50;;;12.70;;
9789;SDS011;4934;50.852;8.098;2023-12-07T06:04:52;40.07;;;15.43;;
9789;SDS011;4934;50.852;8.098;2023-12-07T06:07:18;34.10;;;14.30;;
9789;SDS011;4934;50.852;8.098;2023-12-07T06:09:43;35.27;;;14.00;;
9789;SDS011;4934;50.852;8.098;2023-12-07T06:12:09;36.97;;;13.70;;
9789;SDS011;4934;50.852;8.098;2023-12-07T06:14:35;39.67;;;16.63;;
9789;SDS011;4934;50.852;8.098;2023-12-07T06:17:00;42.27;;;16.30;;
9789;SDS011;4934;50.852;8.098;2023-12-07T06:19:26;42.83;;;16.20;;
9789;SDS011;4934;50.852;8.098;2023-12-07T06:21:51;55.17;;;19.70;;
9789;SDS011;4934;50.852;8.098;2023-12-07T06:24:17;56.47;;;18.60;;
9789;SDS011;4934;50.852;8.098;2023-12-07T06:26:42;57.93;;;20.33;;
9789;SDS011;4934;50.852;8.098;2023-12-07T06:29:08;59.03;;;20.57;;
9789;SDS011;4934;50.852;8.098;2023-12-07T06:31:34;53.10;;;18.67;;
9789;SDS011;4934;50.852;8.098;2023-12-07T06:33:59;56.37;;;19.07;;
9789;SDS011;4934;50.852;8.098;2023-12-07T06:36:25;49.40;;;18.93;;
9789;SDS011;4934;50.852;8.098;2023-12-07T06:38:52;52.07;;;19.00;;
9789;SDS011;4934;50.852;8.098;2023-12-07T06:41:18;52.73;;;19.87;;
9789;SDS011;4934;50.852;8.098;2023-12-07T06:43:44;44.20;;;17.40;;
9789;SDS011;4934;50.852;8.098;2023-12-07T06:46:12;51.13;;;18.30;;
9789;SDS011;4934;50.852;8.098;2023-12-07T06:48:39;51.20;;;19.20;;
9789;SDS011;4934;50.852;8.098;2023-12-07T06:51:06;51.33;;;19.97;;
9789;SDS011;4934;50.852;8.098;2023-12-07T06:53:32;51.10;;;21.50;;
9789;SDS011;4934;50.852;8.098;2023-12-07T06:55:57;53.23;;;18.83;;
9789;SDS011;4934;50.852;8.098;2023-12-07T06:58:24;51.87;;;19.07;;
9789;SDS011;4934;50.852;8.098;2023-12-07T07:00:49;45.30;;;17.30;;
9789;SDS011;4934;50.852;8.098;2023-12-07T07:03:15;53.37;;;19.10;;
9789;SDS011;4934;50.852;8.098;2023-12-07T07:05:41;49.00;;;19.27;;
9789;SDS011;4934;50.852;8.098;2023-12-07T07:08:07;55.87;;;19.40;;
9789;SDS011;4934;50.852;8.098;2023-12-07T07:10:33;53.33;;;20.17;;
9789;SDS011;4934;50.852;8.098;2023-12-07T07:13:00;52.63;;;20.27;;
9789;SDS011;4934;50.852;8.098;2023-12-07T07:15:33;56.10;;;19.43;;
9789;SDS011;4934;50.852;8.098;2023-12-07T07:17:58;46.47;;;17.73;;
9789;SDS011;4934;50.852;8.098;2023-12-07T07:20:24;55.57;;;21.07;;
9789;SDS011;4934;50.852;8.098;2023-12-07T07:22:50;60.90;;;19.97;;
9789;SDS011;4934;50.852;8.098;2023-12-07T07:25:16;54.30;;;17.50;;
9789;SDS011;4934;50.852;8.098;2023-12-07T07:27:44;55.50;;;16.90;;
9789;SDS011;4934;50.852;8.098;2023-12-07T07:30:10;44.67;;;17.63;;
9789;SDS011;4934;50.852;8.098;2023-12-07T07:32:36;43.17;;;16.20;;
9789;SDS011;4934;50.852;8.098;2023-12-07T07:35:02;49.80;;;17.13;;
9789;SDS011;4934;50.852;8.098;2023-12-07T07:37:28;43.47;;;15.87;;
9789;SDS011;4934;50.852;8.098;2023-12-07T07:39:54;52.07;;;18.47;;
9789;SDS011;4934;50.852;8.098;2023-12-07T07:42:19;57.30;;;20.07;;
9789;SDS011;4934;50.852;8.098;2023-12-07T07:44:45;43.73;;;16.67;;
9789;SDS011;4934;50.852;8.098;2023-12-07T07:47:10;36.67;;;13.97;;
9789;SDS011;4934;50.852;8.098;2023-12-07T07:49:36;35.63;;;13.70;;
9789;SDS011;4934;50.852;8.098;2023-12-07T07:52:02;38.87;;;15.03;;
9789;SDS011;4934;50.852;8.098;2023-12-07T07:54:30;42.53;;;15.97;;
9789;SDS011;4934;50.852;8.098;2023-12-07T07:56:55;47.10;;;18.70;;
9789;SDS011;4934;50.852;8.098;2023-12-07T07:59:21;64.40;;;23.40;;
9789;SDS011;4934;50.852;8.098;2023-12-07T08:01:47;58.40;;;23.37;;
9789;SDS011;4934;50.852;8.098;2023-12-07T08:04:12;58.57;;;22.80;;
9789;SDS011;4934;50.852;8.098;2023-12-07T08:06:38;61.10;;;21.10;;
9789;SDS011;4934;50.852;8.098;2023-12-07T08:09:03;56.37;;;20.93;;
9789;SDS011;4934;50.852;8.098;2023-12-07T08:11:29;51.37;;;21.27;;
9789;SDS011;4934;50.852;8.098;2023-12-07T08:13:55;52.40;;;20.37;;
9789;SDS011;4934;50.852;8.098;2023-12-07T08:16:21;40.03;;;16.33;;
9789;SDS011;4934;50.852;8.098;2023-12-07T08:18:47;42.27;;;18.57;;
9789;SDS011;4934;50.852;8.098;2023-12-07T08:21:21;41.43;;;16.43;;
9789;SDS011;4934;50.852;8.098;2023-12-07T08:23:47;49.40;;;17.83;;
9789;SDS011;4934;50.852;8.098;2023-12-07T08:26:13;46.57;;;20.57;;
9789;SDS011;4934;50.852;8.098;2023-12-07T08:28:40;44.97;;;17.67;;
9789;SDS011;4934;50.852;8.098;2023-12-07T08:31:06;54.30;;;20.83;;
9789;SDS011;4934;50.852;8.098;2023-12-07T08:36:00;48.05;;;19.40;;
9789;SDS011;4934;50.852;8.098;2023-12-07T08:38:27;49.03;;;19.77;;
9789;SDS011;4934;50.852;8.098;2023-12-07T08:40:52;48.20;;;18.98;;
9789;SDS011;4934;50.852;8.098;2023-12-07T08:43:21;39.93;;;15.70;;
9789;SDS011;4934;50.852;8.098;2023-12-07T08:45:50;31.07;;;12.50;;
9789;SDS011;4934;50.852;8.098;2023-12-07T08:48:16;30.20;;;12.67;;
9789;SDS011;4934;50.852;8.098;2023-12-07T08:50:43;36.60;;;13.07;;
9789;SDS011;4934;50.852;8.098;2023-12-07T08:53:08;40.73;;;14.10;;
9789;SDS011;4934;50.852;8.098;2023-12-07T08:55:34;31.43;;;11.97;;
9789;SDS011;4934;50.852;8.098;2023-12-07T08:57:59;30.53;;;12.57;;
9789;SDS011;4934;50.852;8.098;2023-12-07T09:00:25;27.90;;;12.57;;
9789;SDS011;4934;50.852;8.098;2023-12-07T09:02:51;28.70;;;12.30;;
9789;SDS011;4934;50.852;8.098;2023-12-07T09:05:17;23.97;;;10.73;;
9789;SDS011;4934;50.852;8.098;2023-12-07T09:07:43;35.42;;;13.30;;
9789;SDS011;4934;50.852;8.098;2023-12-07T09:10:09;26.17;;;11.20;;
9789;SDS011;4934;50.852;8.098;2023-12-07T09:12:35;30.63;;;12.63;;
9789;SDS011;4934;50.852;8.098;2023-12-07T09:15:01;29.63;;;12.00;;
9789;SDS011;4934;50.852;8.098;2023-12-07T09:17:27;32.53;;;13.37;;
9789;SDS011;4934;50.852;8.098;2023-12-07T09:19:53;30.70;;;11.83;;
9789;SDS011;4934;50.852;8.098;2023-12-07T09:22:19;24.47;;;11.37;;
9789;SDS011;4934;50.852;8.098;2023-12-07T09:24:45;26.23;;;11.07;;
9789;SDS011;4934;50.852;8.098;2023-12-07T09:27:11;29.55;;;10.73;;
9789;SDS011;4934;50.852;8.098;2023-12-07T09:29:38;25.90;;;11.37;;
9789;SDS011;4934;50.852;8.098;2023-12-07T09:32:04;30.63;;;11.35;;
9789;SDS011;4934;50.852;8.098;2023-12-07T09:34:30;24.13;;;10.70;;
9789;SDS011;4934;50.852;8.098;2023-12-07T09:37:08;30.90;;;11.33;;
9789;SDS011;4934;50.852;8.098;2023-12-07T09:39:34;25.90;;;10.57;;
9789;SDS011;4934;50.852;8.098;2023-12-07T09:42:01;30.67;;;10.50;;
9789;SDS011;4934;50.852;8.098;2023-12-07T09:44:26;21.53;;;9.77;;
9789;SDS011;4934;50.852;8.098;2023-12-07T09:46:53;25.63;;;11.07;;
9789;SDS011;4934;50.852;8.098;2023-12-07T09:49:19;27.07;;;11.67;;
9789;SDS011;4934;50.852;8.098;2023-12-07T09:54:15;27.20;;;12.43;;
9789;SDS011;4934;50.852;8.098;2023-12-07T09:56:43;23.00;;;10.98;;
9789;SDS011;4934;50.852;8.098;2023-12-07T09:59:09;26.85;;;11.43;;
9789;SDS011;4934;50.852;8.098;2023-12-07T10:01:34;24.77;;;11.17;;
9789;SDS011;4934;50.852;8.098;2023-12-07T10:06:45;26.17;;;10.02;;
9789;SDS011;4934;50.852;8.098;2023-12-07T10:09:13;24.90;;;10.20;;
9789;SDS011;4934;50.852;8.098;2023-12-07T10:11:39;24.58;;;9.68;;
9789;SDS011;4934;50.852;8.098;2023-12-07T10:14:06;22.08;;;9.77;;
9789;SDS011;4934;50.852;8.098;2023-12-07T10:16:35;21.85;;;9.13;;
9789;SDS011;4934;50.852;8.098;2023-12-07T10:19:34;28.42;;;12.43;;
9789;SDS011;4934;50.852;8.098;2023-12-07T10:21:53;33.17;;;11.68;;
9789;SDS011;4934;50.852;8.098;2023-12-07T10:24:20;23.13;;;10.10;;
9789;SDS011;4934;50.852;8.098;2023-12-07T10:26:48;22.27;;;9.88;;
9789;SDS011;4934;50.852;8.098;2023-12-07T10:29:17;23.45;;;10.18;;
9789;SDS011;4934;50.852;8.098;2023-12-07T10:31:43;27.75;;;10.45;;
9789;SDS011;4934;50.852;8.098;2023-12-07T10:34:09;23.38;;;10.32;;
9789;SDS011;4934;50.852;8.098;2023-12-07T10:36:35;24.83;;;9.90;;
9789;SDS011;4934;50.852;8.098;2023-12-07T10:39:01;25.52;;;10.73;;
9789;SDS011;4934;50.852;8.098;2023-12-07T10:41:27;23.33;;;10.48;;
9789;SDS011;4934;50.852;8.098;2023-12-07T10:44:03;31.25;;;10.65;;
9789;SDS011;4934;50.852;8.098;2023-12-07T10:46:32;21.95;;;10.18;;
9789;SDS011;4934;50.852;8.098;2023-12-07T10:49:00;22.05;;;8.60;;
9789;SDS011;4934;50.852;8.098;2023-12-07T10:54:04;25.38;;;11.00;;
9789;SDS011;4934;50.852;8.098;2023-12-07T10:56:34;29.77;;;12.52;;
9789;SDS011;4934;50.852;8.098;2023-12-07T10:59:06;25.88;;;11.45;;
9789;SDS011;4934;50.852;8.098;2023-12-07T11:01:35;27.27;;;9.93;;
9789;SDS011;4934;50.852;8.098;2023-12-07T11:04:06;23.42;;;10.20;;
9789;SDS011;4934;50.852;8.098;2023-12-07T11:06:35;21.75;;;10.43;;
9789;SDS011;4934;50.852;8.098;2023-12-07T11:09:05;24.98;;;9.70;;
9789;SDS011;4934;50.852;8.098;2023-12-07T11:11:55;22.42;;;9.07;;
9789;SDS011;4934;50.852;8.098;2023-12-07T11:14:26;22.02;;;10.20;;
9789;SDS011;4934;50.852;8.098;2023-12-07T11:16:52;20.70;;;9.52;;
9789;SDS011;4934;50.852;8.098;2023-12-07T11:22:03;23.63;;;9.73;;
9789;SDS011;4934;50.852;8.098;2023-12-07T11:26:56;20.40;;;10.05;;
9789;SDS011;4934;50.852;8.098;2023-12-07T11:29:27;20.05;;;8.82;;
9789;SDS011;4934;50.852;8.098;2023-12-07T11:31:59;24.75;;;10.02;;
9789;SDS011;4934;50.852;8.098;2023-12-07T11:34:35;21.42;;;9.40;;
9789;SDS011;4934;50.852;8.098;2023-12-07T11:37:08;22.08;;;9.32;;
9789;SDS011;4934;50.852;8.098;2023-12-07T11:39:34;21.23;;;8.80;;
9789;SDS011;4934;50.852;8.098;2023-12-07T11:42:17;24.85;;;10.80;;
9789;SDS011;4934;50.852;8.098;2023-12-07T11:44:45;29.35;;;11.80;;
9789;SDS011;4934;50.852;8.098;2023-12-07T11:47:19;30.67;;;12.52;;
9789;SDS011;4934;50.852;8.098;2023-12-07T11:49:46;22.08;;;11.35;;
9789;SDS011;4934;50.852;8.098;2023-12-07T11:52:19;23.67;;;11.93;;
9789;SDS011;4934;50.852;8.098;2023-12-07T11:54:45;23.50;;;10.05;;
9789;SDS011;4934;50.852;8.098;2023-12-07T11:57:12;19.45;;;8.45;;
9789;SDS011;4934;50.852;8.098;2023-12-07T11:59:42;21.17;;;8.32;;
9789;SDS011;4934;50.852;8.098;2023-12-07T12:02:12;22.38;;;8.43;;
9789;SDS011;4934;50.852;8.098;2023-12-07T12:04:41;20.23;;;7.80;;
9789;SDS011;4934;50.852;8.098;2023-12-07T12:07:07;22.98;;;8.45;;
9789;SDS011;4934;50.852;8.098;2023-12-07T12:09:33;20.92;;;9.25;;
9789;SDS011;4934;50.852;8.098;2023-12-07T12:11:59;16.65;;;8.10;;
9789;SDS011;4934;50.852;8.098;2023-12-07T12:14:25;19.75;;;8.77;;
9789;SDS011;4934;50.852;8.098;2023-12-07T12:16:51;21.55;;;9.45;;
9789;SDS011;4934;50.852;8.098;2023-12-07T12:19:17;21.23;;;9.07;;
9789;SDS011;4934;50.852;8.098;2023-12-07T12:21:43;19.00;;;8.27;;
9789;SDS011;4934;50.852;8.098;2023-12-07T12:24:10;17.73;;;8.30;;
9789;SDS011;4934;50.852;8.098;2023-12-07T12:26:36;19.58;;;7.53;;
9789;SDS011;4934;50.852;8.098;2023-12-07T12:29:04;22.87;;;8.27;;
9789;SDS011;4934;50.852;8.098;2023-12-07T12:31:31;18.77;;;7.82;;
9789;SDS011;4934;50.852;8.098;2023-12-07T12:33:57;19.25;;;8.25;;
9789;SDS011;4934;50.852;8.098;2023-12-07T12:36:25;14.90;;;6.47;;
9789;SDS011;4934;50.852;8.098;2023-12-07T12:38:53;16.65;;;7.72;;
9789;SDS011;4934;50.852;8.098;2023-12-07T12:41:19;19.45;;;8.02;;
9789;SDS011;4934;50.852;8.098;2023-12-07T12:43:45;18.15;;;8.45;;
9789;SDS011;4934;50.852;8.098;2023-12-07T12:46:11;19.42;;;8.35;;
9789;SDS011;4934;50.852;8.098;2023-12-07T12:48:52;25.45;;;10.02;;
9789;SDS011;4934;50.852;8.098;2023-12-07T12:51:24;20.38;;;8.73;;
9789;SDS011;4934;50.852;8.098;2023-12-07T12:53:51;18.33;;;7.82;;
9789;SDS011;4934;50.852;8.098;2023-12-07T12:56:18;20.92;;;8.38;;
9789;SDS011;4934;50.852;8.098;2023-12-07T12:58:51;22.55;;;8.93;;
9789;SDS011;4934;50.852;8.098;2023-12-07T13:01:17;21.77;;;8.63;;
9789;SDS011;4934;50.852;8.098;2023-12-07T13:03:44;23.00;;;8.70;;
9789;SDS011;4934;50.852;8.098;2023-12-07T13:06:13;24.58;;;8.82;;
9789;SDS011;4934;50.852;8.098;2023-12-07T13:08:40;24.35;;;8.88;;
9789;SDS011;4934;50.852;8.098;2023-12-07T13:11:09;18.50;;;8.23;;
9789;SDS011;4934;50.852;8.098;2023-12-07T13:13:40;25.75;;;9.18;;
9789;SDS011;4934;50.852;8.098;2023-12-07T13:16:06;23.98;;;8.77;;
9789;SDS011;4934;50.852;8.098;2023-12-07T13:18:31;23.65;;;8.82;;
9789;SDS011;4934;50.852;8.098;2023-12-07T13:20:57;16.33;;;7.82;;
9789;SDS011;4934;50.852;8.098;2023-12-07T13:23:24;17.17;;;7.43;;
9789;SDS011;4934;50.852;8.098;2023-12-07T13:25:50;17.48;;;7.93;;
9789;SDS011;4934;50.852;8.098;2023-12-07T13:28:16;23.17;;;8.57;;
9789;SDS011;4934;50.852;8.098;2023-12-07T13:30:41;18.00;;;8.32;;
9789;SDS011;4934;50.852;8.098;2023-12-07T13:33:07;19.88;;;8.23;;
9789;SDS011;4934;50.852;8.098;2023-12-07T13:35:34;22.90;;;9.07;;
9789;SDS011;4934;50.852;8.098;2023-12-07T13:38:00;19.65;;;7.80;;
9789;SDS011;4934;50.852;8.098;2023-12-07T13:40:26;21.00;;;8.45;;
9789;SDS011;4934;50.852;8.098;2023-12-07T13:42:52;17.80;;;8.07;;
9789;SDS011;4934;50.852;8.098;2023-12-07T13:45:18;17.02;;;7.40;;
9789;SDS011;4934;50.852;8.098;2023-12-07T13:47:44;25.52;;;14.20;;
9789;SDS011;4934;50.852;8.098;2023-12-07T13:50:10;25.42;;;8.95;;
9789;SDS011;4934;50.852;8.098;2023-12-07T13:52:36;19.58;;;8.15;;
9789;SDS011;4934;50.852;8.098;2023-12-07T13:55:03;21.42;;;9.55;;
9789;SDS011;4934;50.852;8.098;2023-12-07T13:57:29;19.85;;;7.78;;
9789;SDS011;4934;50.852;8.098;2023-12-07T13:59:55;21.38;;;8.43;;
9789;SDS011;4934;50.852;8.098;2023-12-07T14:02:21;21.67;;;9.20;;
9789;SDS011;4934;50.852;8.098;2023-12-07T14:04:48;23.60;;;8.18;;
9789;SDS011;4934;50.852;8.098;2023-12-07T14:07:15;18.75;;;8.30;;
9789;SDS011;4934;50.852;8.098;2023-12-07T14:09:43;20.93;;;8.30;;
9789;SDS011;4934;50.852;8.098;2023-12-07T14:12:10;20.58;;;9.00;;
9789;SDS011;4934;50.852;8.098;2023-12-07T14:14:38;21.90;;;8.38;;
9789;SDS011;4934;50.852;8.098;2023-12-07T14:17:04;16.65;;;7.63;;
9789;SDS011;4934;50.852;8.098;2023-12-07T14:19:30;20.70;;;7.75;;
9789;SDS011;4934;50.852;8.098;2023-12-07T14:21:56;19.13;;;7.47;;
9789;SDS011;4934;50.852;8.098;2023-12-07T14:24:22;19.35;;;10.13;;
9789;SDS011;4934;50.852;8.098;2023-12-07T14:26:49;19.33;;;8.40;;
9789;SDS011;4934;50.852;8.098;2023-12-07T14:29:15;23.58;;;9.75;;
9789;SDS011;4934;50.852;8.098;2023-12-07T14:31:43;19.50;;;8.57;;
9789;SDS011;4934;50.852;8.098;2023-12-07T14:34:09;18.90;;;8.27;;
9789;SDS011;4934;50.852;8.098;2023-12-07T14:36:35;18.25;;;7.18;;
9789;SDS011;4934;50.852;8.098;2023-12-07T14:39:03;20.17;;;8.02;;
9789;SDS011;4934;50.852;8.098;2023-12-07T14:41:31;19.63;;;7.07;;
9789;SDS011;4934;50.852;8.098;2023-12-07T14:43:57;21.20;;;9.00;;
9789;SDS011;4934;50.852;8.098;2023-12-07T14:46:23;18.67;;;7.97;;
9789;SDS011;4934;50.852;8.098;2023-12-07T14:48:48;27.73;;;8.10;;
9789;SDS011;4934;50.852;8.098;2023-12-07T14:51:17;30.93;;;9.77;;
9789;SDS011;4934;50.852;8.098;2023-12-07T14:53:45;26.93;;;9.07;;
9789;SDS011;4934;50.852;8.098;2023-12-07T14:56:11;21.67;;;8.90;;
9789;SDS011;4934;50.852;8.098;2023-12-07T14:58:37;23.53;;;8.80;;
9789;SDS011;4934;50.852;8.098;2023-12-07T15:01:05;20.93;;;8.13;;
9789;SDS011;4934;50.852;8.098;2023-12-07T15:03:31;29.80;;;9.40;;
9789;SDS011;4934;50.852;8.098;2023-12-07T15:05:56;30.33;;;11.03;;